createdAt,value
2023-03-02T00:02:07.082Z,142.30
2023-03-02T00:04:41.255Z,172.07
2023-03-02T00:07:13.002Z,175.93
2023-03-02T00:09:45.464Z,166.13
2023-03-02T00:12:16.196Z,184.93
2023-03-02T00:14:45.362Z,200.17
2023-03-02T00:17:14.782Z,203.93
2023-03-02T00:19:45.206Z,184.70
2023-03-02T00:22:14.151Z,197.93
2023-03-02T00:24:44.446Z,204.53
2023-03-02T00:27:13.425Z,216.30
2023-03-02T00:29:42.747Z,207.43
2023-03-02T00:32:18.463Z,199.43
2023-03-02T00:34:47.316Z,218.80
2023-03-02T00:37:16.042Z,218.23
2023-03-02T00:39:47.270Z,220.53
2023-03-02T00:42:16.579Z,198.27
2023-03-02T00:44:45.494Z,196.10
2023-03-02T00:47:15.117Z,220.97
2023-03-02T00:49:49.326Z,233.33
2023-03-02T00:52:18.671Z,223.40
2023-03-02T00:54:49.435Z,205.30
2023-03-02T00:57:18.784Z,183.13
2023-03-02T00:59:47.787Z,203.03
2023-03-02T01:02:27.149Z,188.73
2023-03-02T01:04:56.213Z,198.77
2023-03-02T01:07:26.554Z,204.00
2023-03-02T01:09:57.124Z,190.43
2023-03-02T01:12:25.845Z,190.23
2023-03-02T01:14:55.947Z,172.07
2023-03-02T01:17:25.592Z,178.80
2023-03-02T01:19:54.898Z,185.93
2023-03-02T01:22:24.714Z,186.07
2023-03-02T01:24:54.053Z,190.47
2023-03-02T01:27:24.791Z,189.97
2023-03-02T01:29:53.664Z,191.70
2023-03-02T01:32:22.645Z,193.10
2023-03-02T01:34:51.858Z,180.97
2023-03-02T01:37:21.102Z,202.70
2023-03-02T01:39:49.989Z,212.63
2023-03-02T01:42:19.564Z,198.00
2023-03-02T01:44:51.759Z,206.57
2023-03-02T01:47:24.396Z,204.60
2023-03-02T01:50:08.465Z,194.40
2023-03-02T01:52:41.299Z,227.03
2023-03-02T01:55:14.345Z,244.57
2023-03-02T01:57:47.878Z,206.80
2023-03-02T02:00:21.931Z,210.93
2023-03-02T02:02:52.601Z,220.47
2023-03-02T02:05:28.517Z,214.60
2023-03-02T02:07:57.616Z,219.67
2023-03-02T02:10:27.115Z,199.47
2023-03-02T02:12:56.149Z,187.93
2023-03-02T02:15:26.567Z,181.40
2023-03-02T02:17:56.250Z,179.00
2023-03-02T02:20:32.012Z,175.37
2023-03-02T02:23:14.598Z,187.30
2023-03-02T02:25:49.582Z,181.67
2023-03-02T02:28:23.429Z,191.43
2023-03-02T02:31:06.241Z,201.03
2023-03-02T02:33:36.902Z,195.63
2023-03-02T02:36:10.137Z,216.77
2023-03-02T02:38:42.000Z,219.33
2023-03-02T02:41:17.652Z,231.37
2023-03-02T02:43:49.271Z,208.70
2023-03-02T02:46:18.904Z,208.53
2023-03-02T02:48:48.120Z,184.37
2023-03-02T02:51:23.211Z,202.90
2023-03-02T02:54:00.127Z,197.37
2023-03-02T02:56:36.206Z,181.83
2023-03-02T02:59:15.129Z,182.20
2023-03-02T03:01:45.186Z,200.63
2023-03-02T03:04:17.139Z,188.33
2023-03-02T03:06:53.277Z,181.07
2023-03-02T03:09:22.412Z,185.73
2023-03-02T03:11:53.655Z,178.50
2023-03-02T03:14:29.856Z,199.17
2023-03-02T03:16:59.250Z,190.97
2023-03-02T03:19:31.621Z,195.57
2023-03-02T03:22:03.236Z,200.60
2023-03-02T03:24:37.347Z,179.20
2023-03-02T03:27:09.257Z,176.97
2023-03-02T03:29:45.621Z,174.80
2023-03-02T03:32:16.025Z,169.20
2023-03-02T03:34:45.952Z,171.77
2023-03-02T03:37:22.821Z,187.50
2023-03-02T03:39:52.498Z,180.93
2023-03-02T03:42:24.047Z,175.13
2023-03-02T03:44:55.718Z,150.47
2023-03-02T03:47:25.778Z,165.37
2023-03-02T03:49:54.666Z,173.00
2023-03-02T03:52:30.927Z,184.93
2023-03-02T03:55:10.683Z,160.93
2023-03-02T03:57:40.601Z,162.83
2023-03-02T04:00:15.295Z,175.73
2023-03-02T04:02:51.048Z,179.57
2023-03-02T04:05:21.419Z,166.00
2023-03-02T04:07:53.650Z,165.13
2023-03-02T04:10:23.626Z,134.27
2023-03-02T04:12:54.681Z,144.27
2023-03-02T04:15:26.014Z,143.00
2023-03-02T04:17:55.466Z,133.63
2023-03-02T04:20:26.992Z,161.60
2023-03-02T04:22:58.921Z,154.33
2023-03-02T04:25:29.940Z,155.90
2023-03-02T04:28:10.266Z,147.50
2023-03-02T04:30:42.848Z,161.40
2023-03-02T04:33:11.610Z,159.70
2023-03-02T04:35:40.560Z,152.43
2023-03-02T04:38:09.470Z,158.80
2023-03-02T04:40:38.575Z,169.30
2023-03-02T04:43:08.574Z,152.03
2023-03-02T04:45:37.540Z,139.53
2023-03-02T04:48:09.094Z,151.17
2023-03-02T04:50:38.819Z,154.00
2023-03-02T04:53:07.854Z,162.07
2023-03-02T04:55:36.904Z,162.87
2023-03-02T04:58:06.048Z,150.97
2023-03-02T05:00:35.977Z,158.07
2023-03-02T05:03:07.368Z,141.07
2023-03-02T05:05:36.211Z,153.67
2023-03-02T05:08:05.588Z,156.97
2023-03-02T05:10:35.075Z,158.30
2023-03-02T05:13:06.036Z,146.57
2023-03-02T05:15:37.400Z,153.90
2023-03-02T05:18:10.174Z,162.23
2023-03-02T05:20:39.108Z,167.60
2023-03-02T05:23:11.208Z,162.10
2023-03-02T05:25:41.053Z,172.70
2023-03-02T05:28:09.869Z,163.87
2023-03-02T05:30:39.129Z,162.10
2023-03-02T05:33:09.892Z,158.10
2023-03-02T05:35:39.703Z,163.83
2023-03-02T05:38:08.922Z,166.33
2023-03-02T05:40:38.154Z,168.83
2023-03-02T05:43:08.050Z,169.63
2023-03-02T05:45:39.524Z,168.97
2023-03-02T05:48:12.166Z,159.93
2023-03-02T05:50:41.258Z,193.23
2023-03-02T05:53:10.473Z,165.37
2023-03-02T05:55:39.543Z,164.60
2023-03-02T05:58:10.401Z,181.43
2023-03-02T06:00:39.636Z,173.10
2023-03-02T06:03:10.718Z,172.17
2023-03-02T06:05:40.697Z,169.63
2023-03-02T06:08:10.211Z,167.07
2023-03-02T06:10:38.890Z,161.77
2023-03-02T06:13:08.107Z,152.90
2023-03-02T06:15:38.129Z,182.10
2023-03-02T06:18:07.202Z,169.77
2023-03-02T06:20:38.250Z,155.13
2023-03-02T06:23:07.384Z,169.83
2023-03-02T06:25:37.737Z,158.87
2023-03-02T06:28:10.123Z,143.70
2023-03-02T06:30:39.128Z,166.53
2023-03-02T06:33:07.678Z,150.57
2023-03-02T06:35:38.517Z,150.67
2023-03-02T06:38:07.217Z,152.60
2023-03-02T06:40:36.148Z,154.57
2023-03-02T06:43:04.986Z,148.93
2023-03-02T06:45:36.795Z,150.63
2023-03-02T06:48:06.775Z,160.00
2023-03-02T06:50:37.020Z,148.73
2023-03-02T06:53:07.629Z,147.10
2023-03-02T06:55:36.898Z,150.53
2023-03-02T06:58:07.832Z,155.60
2023-03-02T07:00:37.162Z,145.43
2023-03-02T07:03:06.310Z,150.63
2023-03-02T07:05:36.286Z,156.00
2023-03-02T07:08:07.049Z,146.10
2023-03-02T07:10:36.026Z,152.10
2023-03-02T07:13:06.385Z,137.17
2023-03-02T07:15:36.587Z,155.83
2023-03-02T07:18:05.916Z,143.93
2023-03-02T07:20:34.911Z,145.77
2023-03-02T07:23:03.979Z,149.40
2023-03-02T07:25:34.537Z,153.90
2023-03-02T07:28:04.149Z,164.63
2023-03-02T07:30:33.570Z,148.37
2023-03-02T07:33:02.926Z,149.40
2023-03-02T07:35:32.391Z,160.83
2023-03-02T07:38:01.015Z,161.17
2023-03-02T07:40:30.145Z,173.97
2023-03-02T07:43:01.749Z,177.97
2023-03-02T07:45:30.347Z,159.20
2023-03-02T07:47:58.916Z,164.93
2023-03-02T07:50:28.096Z,152.33
2023-03-02T07:52:58.601Z,159.20
2023-03-02T07:55:29.542Z,154.93
2023-03-02T07:57:59.895Z,165.43
2023-03-02T08:00:28.694Z,137.03
2023-03-02T08:02:57.628Z,151.57
2023-03-02T08:05:26.984Z,128.80
2023-03-02T08:07:55.808Z,140.03
2023-03-02T08:10:24.797Z,129.47
2023-03-02T08:12:54.089Z,128.43
2023-03-02T08:15:25.746Z,135.67
2023-03-02T08:17:55.316Z,129.97
2023-03-02T08:20:27.841Z,118.03
2023-03-02T08:22:57.208Z,109.03
2023-03-02T08:25:26.029Z,92.63
2023-03-02T08:27:54.679Z,99.00
2023-03-02T08:30:25.055Z,101.60
2023-03-02T08:32:53.810Z,95.40
2023-03-02T08:35:23.126Z,88.20
2023-03-02T08:37:52.056Z,92.22
2023-03-02T08:40:20.718Z,91.60
2023-03-02T08:42:50.089Z,83.85
2023-03-02T08:45:21.156Z,79.80
2023-03-02T08:47:51.320Z,80.32
2023-03-02T08:50:20.034Z,77.88
2023-03-02T08:52:48.822Z,74.40
2023-03-02T08:55:18.750Z,73.40
2023-03-02T08:57:47.905Z,54.63
2023-03-02T09:00:18.872Z,61.70
2023-03-02T09:02:47.692Z,64.25
2023-03-02T09:05:17.929Z,61.35
2023-03-02T09:07:46.772Z,61.78
2023-03-02T09:10:15.632Z,69.72
2023-03-02T09:12:44.758Z,67.72
2023-03-02T09:15:14.044Z,64.57
2023-03-02T09:17:42.948Z,65.03
2023-03-02T09:20:14.752Z,63.55
2023-03-02T09:22:49.302Z,64.30
2023-03-02T09:25:19.368Z,62.28
2023-03-02T09:27:49.155Z,59.53
2023-03-02T09:30:18.407Z,58.13
2023-03-02T09:32:49.482Z,42.72
2023-03-02T09:35:19.094Z,44.53
2023-03-02T09:37:49.693Z,47.08
2023-03-02T09:40:23.165Z,48.30
2023-03-02T09:43:34.865Z,43.35
2023-03-02T09:46:19.432Z,41.88
2023-03-02T09:49:03.227Z,42.47
2023-03-02T09:51:39.896Z,43.90
2023-03-02T09:54:16.278Z,44.10
2023-03-02T09:56:49.778Z,43.47
2023-03-02T09:59:25.211Z,46.65
2023-03-02T10:02:01.488Z,57.13
2023-03-02T10:04:33.064Z,46.40
2023-03-02T10:07:14.698Z,48.97
2023-03-02T10:09:46.003Z,45.50
2023-03-02T10:12:38.961Z,52.70
2023-03-02T10:15:14.746Z,51.45
2023-03-02T10:17:56.438Z,44.42
2023-03-02T10:20:34.733Z,41.50
2023-03-02T10:23:18.759Z,37.58
2023-03-02T10:25:54.076Z,37.00
2023-03-02T10:28:25.919Z,35.97
2023-03-02T10:31:00.823Z,35.38
2023-03-02T10:33:34.258Z,34.47
2023-03-02T10:36:07.161Z,36.70
2023-03-02T10:38:41.173Z,35.47
2023-03-02T10:41:19.472Z,33.08
2023-03-02T10:43:53.591Z,34.63
2023-03-02T10:46:23.225Z,38.00
2023-03-02T10:48:56.911Z,35.97
2023-03-02T10:51:29.144Z,33.90
2023-03-02T10:54:09.637Z,33.90
2023-03-02T10:56:40.675Z,35.75
2023-03-02T10:59:40.103Z,32.05
2023-03-02T11:02:17.513Z,29.85
2023-03-02T11:04:49.669Z,31.85
2023-03-02T11:07:20.818Z,31.55
2023-03-02T11:10:02.823Z,31.08
2023-03-02T11:12:39.104Z,33.13
2023-03-02T11:15:28.658Z,30.80
2023-03-02T11:18:03.560Z,34.33
2023-03-02T11:20:37.366Z,35.38
2023-03-02T11:23:31.765Z,37.03
2023-03-02T11:26:03.985Z,33.63
2023-03-02T11:28:44.011Z,32.60
2023-03-02T11:31:21.942Z,36.10
2023-03-02T11:34:17.342Z,33.75
2023-03-02T11:36:58.527Z,36.42
2023-03-02T11:39:46.451Z,35.53
2023-03-02T11:42:26.904Z,35.40
2023-03-02T11:44:58.268Z,34.10
2023-03-02T11:47:27.770Z,33.45
2023-03-02T11:50:00.683Z,36.95
2023-03-02T11:52:34.232Z,37.58
2023-03-02T11:55:12.090Z,37.42
2023-03-02T11:57:48.903Z,36.95
2023-03-02T12:00:33.279Z,36.10
2023-03-02T12:03:04.907Z,35.80
2023-03-02T12:05:37.395Z,32.20
2023-03-02T12:08:08.353Z,39.45
2023-03-02T12:10:41.027Z,31.58
2023-03-02T12:13:17.170Z,34.60
2023-03-02T12:15:50.933Z,31.77
2023-03-02T12:18:56.253Z,31.50
2023-03-02T12:21:26.142Z,30.02
2023-03-02T12:24:01.384Z,28.60
2023-03-02T12:26:35.524Z,29.95
2023-03-02T12:29:09.684Z,29.33
2023-03-02T12:31:45.479Z,30.27
2023-03-02T12:34:37.184Z,29.27
2023-03-02T12:37:16.264Z,31.20
2023-03-02T12:40:18.962Z,31.58
2023-03-02T12:43:22.481Z,30.55
2023-03-02T12:46:27.735Z,33.92
2023-03-02T12:49:19.170Z,32.38
2023-03-02T12:51:59.915Z,30.95
2023-03-02T12:54:31.257Z,31.40
2023-03-02T12:57:09.509Z,29.90
2023-03-02T12:59:38.885Z,27.13
2023-03-02T13:02:17.199Z,30.13
2023-03-02T13:04:55.867Z,28.02
2023-03-02T13:07:28.212Z,28.77
2023-03-02T13:10:00.802Z,28.63
2023-03-02T13:12:30.945Z,30.60
2023-03-02T13:15:00.935Z,27.23
2023-03-02T13:17:32.122Z,29.58
2023-03-02T13:20:05.686Z,29.27
2023-03-02T13:22:35.796Z,26.63
2023-03-02T13:25:06.516Z,28.25
2023-03-02T13:27:36.127Z,26.92
2023-03-02T13:30:13.046Z,24.35
2023-03-02T13:32:44.109Z,23.50
2023-03-02T13:35:26.448Z,22.52
2023-03-02T13:38:01.793Z,20.42
2023-03-02T13:40:43.291Z,17.80
2023-03-02T13:43:39.151Z,21.15
2023-03-02T13:46:24.677Z,23.35
2023-03-02T13:49:14.282Z,19.83
2023-03-02T13:51:48.600Z,17.85
2023-03-02T13:54:22.787Z,22.48
2023-03-02T13:56:52.742Z,22.63
2023-03-02T13:59:23.880Z,19.08
2023-03-02T14:01:53.598Z,22.52
2023-03-02T14:04:24.523Z,22.75
2023-03-02T14:06:56.137Z,21.10
2023-03-02T14:09:27.317Z,22.27
2023-03-02T14:11:58.391Z,19.92
2023-03-02T14:14:31.128Z,19.20
2023-03-02T14:17:00.675Z,15.90
2023-03-02T14:19:29.654Z,16.77
2023-03-02T14:22:00.697Z,22.08
2023-03-02T14:24:30.067Z,20.35
2023-03-02T14:26:59.669Z,17.90
2023-03-02T14:29:31.943Z,14.05
2023-03-02T14:32:04.938Z,14.48
2023-03-02T14:34:36.115Z,14.80
2023-03-02T14:37:09.620Z,17.42
2023-03-02T14:39:41.187Z,17.75
2023-03-02T14:42:14.629Z,13.90
2023-03-02T14:44:45.011Z,16.55
2023-03-02T14:47:14.181Z,19.50
2023-03-02T14:49:43.185Z,16.95
2023-03-02T14:52:19.158Z,19.17
2023-03-02T14:54:52.535Z,16.75
2023-03-02T14:57:25.467Z,22.25
2023-03-02T14:59:54.548Z,20.75
2023-03-02T15:02:26.846Z,22.05
2023-03-02T15:04:57.877Z,29.98
2023-03-02T15:07:29.760Z,24.42
2023-03-02T15:09:59.391Z,29.83
2023-03-02T15:12:29.124Z,26.77
2023-03-02T15:14:58.142Z,26.55
2023-03-02T15:17:27.338Z,34.10
2023-03-02T15:19:56.645Z,26.58
2023-03-02T15:22:25.806Z,28.58
2023-03-02T15:24:56.446Z,33.33
2023-03-02T15:27:25.782Z,26.02
2023-03-02T15:29:56.794Z,29.63
2023-03-02T15:32:27.384Z,31.10
2023-03-02T15:35:04.345Z,29.67
2023-03-02T15:37:33.852Z,28.45
2023-03-02T15:40:04.358Z,32.50
2023-03-02T15:42:33.730Z,27.38
2023-03-02T15:45:03.165Z,27.98
2023-03-02T15:47:34.187Z,29.57
2023-03-02T15:50:03.458Z,27.47
2023-03-02T15:52:32.633Z,28.73
2023-03-02T15:55:01.662Z,34.73
2023-03-02T15:57:32.759Z,31.80
2023-03-02T16:00:04.299Z,35.07
2023-03-02T16:02:34.670Z,42.93
2023-03-02T16:05:03.996Z,47.23
2023-03-02T16:07:33.352Z,51.13
2023-03-02T16:10:02.517Z,65.67
2023-03-02T16:12:33.804Z,73.97
2023-03-02T16:15:02.697Z,80.67
2023-03-02T16:17:31.841Z,79.77
2023-03-02T16:20:01.219Z,81.53
2023-03-02T16:22:30.188Z,78.63
2023-03-02T16:24:58.973Z,79.67
2023-03-02T16:27:28.012Z,88.70
2023-03-02T16:29:58.999Z,79.23
2023-03-02T16:32:28.021Z,79.87
2023-03-02T16:34:57.404Z,76.17
2023-03-02T16:37:26.329Z,84.33
2023-03-02T16:39:55.386Z,85.23
2023-03-02T16:42:24.589Z,83.37
2023-03-02T16:44:53.826Z,83.63
2023-03-02T16:47:24.401Z,89.20
2023-03-02T16:49:54.124Z,79.70
2023-03-02T16:52:23.313Z,96.97
2023-03-02T16:54:52.231Z,97.93
2023-03-02T16:57:21.997Z,91.73
2023-03-02T16:59:51.070Z,99.73
2023-03-02T17:02:20.555Z,94.17
2023-03-02T17:04:51.516Z,102.73
2023-03-02T17:07:21.194Z,101.20
2023-03-02T17:09:50.453Z,102.07
2023-03-02T17:12:19.449Z,111.27
2023-03-02T17:14:48.724Z,100.47
2023-03-02T17:17:17.706Z,104.80
2023-03-02T17:19:46.758Z,99.73
2023-03-02T17:22:17.725Z,110.33
2023-03-02T17:24:47.191Z,107.60
2023-03-02T17:27:29.625Z,115.63
2023-03-02T17:29:58.631Z,112.00
2023-03-02T17:32:28.303Z,114.33
2023-03-02T17:34:57.300Z,116.73
2023-03-02T17:37:28.834Z,138.73
2023-03-02T17:39:58.159Z,150.57
2023-03-02T17:42:27.920Z,150.87
2023-03-02T17:44:56.865Z,129.43
2023-03-02T17:47:26.194Z,140.57
2023-03-02T17:49:56.916Z,129.33
2023-03-02T17:52:30.626Z,129.90
2023-03-02T17:55:03.046Z,133.27
2023-03-02T17:57:32.192Z,130.47
2023-03-02T18:00:01.051Z,126.50
2023-03-02T18:02:30.085Z,134.83
2023-03-02T18:05:01.100Z,136.67
2023-03-02T18:07:32.396Z,134.30
2023-03-02T18:10:01.728Z,123.03
2023-03-02T18:12:30.931Z,119.83
2023-03-02T18:15:00.315Z,121.63
2023-03-02T18:17:29.637Z,140.43
2023-03-02T18:19:59.133Z,160.83
2023-03-02T18:22:28.409Z,151.53
2023-03-02T18:24:58.811Z,134.60
2023-03-02T18:27:28.538Z,129.60
2023-03-02T18:29:57.957Z,117.97
2023-03-02T18:32:26.991Z,145.50
2023-03-02T18:34:56.414Z,126.37
2023-03-02T18:37:26.729Z,123.50
2023-03-02T18:39:55.918Z,128.13
2023-03-02T18:42:26.014Z,127.47
2023-03-02T18:44:55.750Z,128.50
2023-03-02T18:47:25.351Z,135.30
2023-03-02T18:49:54.458Z,134.03
2023-03-02T18:52:23.791Z,132.60
2023-03-02T18:54:57.823Z,134.97
2023-03-02T18:57:29.292Z,160.80
2023-03-02T18:59:58.817Z,161.23
2023-03-02T19:02:29.192Z,171.67
2023-03-02T19:04:58.907Z,162.63
2023-03-02T19:07:28.241Z,162.47
2023-03-02T19:09:57.235Z,162.50
2023-03-02T19:12:28.210Z,174.17
2023-03-02T19:14:57.617Z,165.27
2023-03-02T19:17:26.965Z,162.40
2023-03-02T19:19:56.564Z,156.63
2023-03-02T19:22:25.809Z,156.50
2023-03-02T19:24:55.606Z,154.70
2023-03-02T19:27:24.769Z,158.27
2023-03-02T19:29:55.981Z,145.27
2023-03-02T19:32:25.409Z,140.07
2023-03-02T19:34:55.200Z,162.30
2023-03-02T19:37:24.874Z,146.67
2023-03-02T19:39:54.317Z,131.40
2023-03-02T19:42:23.786Z,152.80
2023-03-02T19:44:53.021Z,143.17
2023-03-02T19:47:23.872Z,137.33
2023-03-02T19:49:53.029Z,131.53
2023-03-02T19:52:22.042Z,128.00
2023-03-02T19:54:51.729Z,129.90
2023-03-02T19:57:21.960Z,135.63
2023-03-02T19:59:51.073Z,127.13
2023-03-02T20:02:20.402Z,121.63
2023-03-02T20:04:52.696Z,133.87
2023-03-02T20:07:22.233Z,129.97
2023-03-02T20:09:51.042Z,133.77
2023-03-02T20:12:20.668Z,128.40
2023-03-02T20:14:51.020Z,119.87
2023-03-02T20:17:21.468Z,136.70
2023-03-02T20:19:53.000Z,138.63
2023-03-02T20:22:22.969Z,143.83
2023-03-02T20:24:52.096Z,160.83
2023-03-02T20:27:21.657Z,139.67
2023-03-02T20:29:50.904Z,177.57
2023-03-02T20:32:20.542Z,147.80
2023-03-02T20:34:51.338Z,150.37
2023-03-02T20:37:23.294Z,159.27
2023-03-02T20:39:54.450Z,185.37
2023-03-02T20:42:24.159Z,149.03
2023-03-02T20:44:54.106Z,161.23
2023-03-02T20:47:23.792Z,136.77
2023-03-02T20:49:56.127Z,155.90
2023-03-02T20:52:25.834Z,156.13
2023-03-02T20:54:55.175Z,160.43
2023-03-02T20:57:24.956Z,156.80
2023-03-02T20:59:54.136Z,194.93
2023-03-02T21:02:24.168Z,191.33
2023-03-02T21:04:55.826Z,157.67
2023-03-02T21:07:25.694Z,144.27
2023-03-02T21:09:57.580Z,236.20
2023-03-02T21:12:26.963Z,238.07
2023-03-02T21:14:56.284Z,205.23
2023-03-02T21:17:26.260Z,152.17
2023-03-02T21:19:57.154Z,163.60
2023-03-02T21:22:27.049Z,258.70
2023-03-02T21:24:56.626Z,152.23
2023-03-02T21:27:25.568Z,185.40
2023-03-02T21:29:54.913Z,183.33
2023-03-02T21:32:24.908Z,185.03
2023-03-02T21:34:54.644Z,181.30
2023-03-02T21:37:25.741Z,217.50
2023-03-02T21:39:55.164Z,316.33
2023-03-02T21:42:24.327Z,153.40
2023-03-02T21:44:53.405Z,255.00
2023-03-02T21:47:22.464Z,227.83
2023-03-02T21:49:51.986Z,197.97
2023-03-02T21:52:21.165Z,211.60
2023-03-02T21:54:51.635Z,205.77
2023-03-02T21:57:20.905Z,319.40
2023-03-02T21:59:50.444Z,191.80
2023-03-02T22:02:19.663Z,195.10
2023-03-02T22:04:49.183Z,165.00
2023-03-02T22:07:18.596Z,178.00
2023-03-02T22:09:49.009Z,186.77
2023-03-02T22:12:21.835Z,213.07
2023-03-02T22:14:53.715Z,193.67
2023-03-02T22:17:25.313Z,200.87
2023-03-02T22:19:55.485Z,221.97
2023-03-02T22:22:27.763Z,198.07
2023-03-02T22:24:57.117Z,168.33
2023-03-02T22:27:30.941Z,143.50
2023-03-02T22:30:04.082Z,206.40
2023-03-02T22:32:37.782Z,171.03
2023-03-02T22:35:22.649Z,158.90
2023-03-02T22:37:53.372Z,176.83
2023-03-02T22:40:30.904Z,134.17
2023-03-02T22:43:14.707Z,164.13
2023-03-02T22:45:44.143Z,171.90
2023-03-02T22:48:16.315Z,159.50
2023-03-02T22:50:46.667Z,189.83
2023-03-02T22:53:28.091Z,153.03
2023-03-02T22:56:00.404Z,134.83
2023-03-02T22:58:37.781Z,160.40
2023-03-02T23:01:20.135Z,150.40
2023-03-02T23:03:51.226Z,171.93
2023-03-02T23:06:29.376Z,145.97
2023-03-02T23:08:59.990Z,167.53
2023-03-02T23:11:30.456Z,143.73
2023-03-02T23:14:04.056Z,176.23
2023-03-02T23:16:37.112Z,141.53
2023-03-02T23:19:07.388Z,135.63
2023-03-02T23:21:40.046Z,185.50
2023-03-02T23:24:10.145Z,145.87
2023-03-02T23:26:39.280Z,158.60
2023-03-02T23:29:09.684Z,171.13
2023-03-02T23:31:38.855Z,158.43
2023-03-02T23:34:08.301Z,162.20
2023-03-02T23:36:38.236Z,148.60
2023-03-02T23:39:07.780Z,163.40
2023-03-02T23:41:36.921Z,162.73
2023-03-02T23:44:06.698Z,175.47
2023-03-02T23:46:37.583Z,188.60
2023-03-02T23:49:06.869Z,160.07
2023-03-02T23:51:36.684Z,182.77
2023-03-02T23:54:06.181Z,204.83
2023-03-02T23:56:35.425Z,175.97
2023-03-02T23:59:04.391Z,224.13
